Terminal Aerodrome Forecast
Issued by NWS St Louis, MO

Home | Current Version | Previous Version | Text Only | Print | Product List | Glossary On
Versions: 1 2 3 4 5 6 7 8 9 10 11 12 13 14 15 16 17 18 19 20 21 22 23 24 25
000
FTUS43 KLSX 192000 AAA
TAFSTL
TAF AMD
KSTL 192053Z 1921/2024 29010KT 5SM -RA SCT030 OVC050
     FM192130 29010KT P6SM VCSH SCT050 BKN100
     FM200900 30012G20KT P6SM BKN025
     FM201500 30018G28KT P6SM SCT040=

USA.gov is the U.S. government's official web portal to all federal, state and local government web resources and services.